sensor_id;sensor_type;location;lat;lon;timestamp;P1;durP1;ratioP1;P2;durP2;ratioP2
51266;SDS011;37338;47.426;19.204;2023-04-03T00:00:19;2.87;;;2.20;;
51266;SDS011;37338;47.426;19.204;2023-04-03T00:02:44;5.27;;;3.07;;
51266;SDS011;37338;47.426;19.204;2023-04-03T00:05:10;4.60;;;3.30;;
51266;SDS011;37338;47.426;19.204;2023-04-03T00:07:35;6.47;;;3.30;;
51266;SDS011;37338;47.426;19.204;2023-04-03T00:10:00;5.10;;;3.47;;
51266;SDS011;37338;47.426;19.204;2023-04-03T00:12:26;5.03;;;3.37;;
51266;SDS011;37338;47.426;19.204;2023-04-03T00:14:51;6.57;;;3.20;;
51266;SDS011;37338;47.426;19.204;2023-04-03T00:17:17;4.77;;;3.47;;
51266;SDS011;37338;47.426;19.204;2023-04-03T00:19:42;4.53;;;3.43;;
51266;SDS011;37338;47.426;19.204;2023-04-03T00:22:07;5.13;;;3.30;;
51266;SDS011;37338;47.426;19.204;2023-04-03T00:24:33;4.03;;;2.60;;
51266;SDS011;37338;47.426;19.204;2023-04-03T00:26:58;4.10;;;2.87;;
51266;SDS011;37338;47.426;19.204;2023-04-03T00:29:24;4.27;;;2.87;;
51266;SDS011;37338;47.426;19.204;2023-04-03T00:31:49;3.20;;;2.20;;
51266;SDS011;37338;47.426;19.204;2023-04-03T00:34:14;4.10;;;2.93;;
51266;SDS011;37338;47.426;19.204;2023-04-03T00:36:40;4.27;;;2.53;;
51266;SDS011;37338;47.426;19.204;2023-04-03T00:39:05;3.67;;;2.80;;
51266;SDS011;37338;47.426;19.204;2023-04-03T00:41:31;4.27;;;2.57;;
51266;SDS011;37338;47.426;19.204;2023-04-03T00:43:57;3.73;;;2.73;;
51266;SDS011;37338;47.426;19.204;2023-04-03T00:46:22;3.33;;;3.00;;
51266;SDS011;37338;47.426;19.204;2023-04-03T00:48:48;5.20;;;3.03;;
51266;SDS011;37338;47.426;19.204;2023-04-03T00:51:14;5.07;;;3.50;;
51266;SDS011;37338;47.426;19.204;2023-04-03T00:53:46;5.33;;;3.20;;
51266;SDS011;37338;47.426;19.204;2023-04-03T00:56:16;5.55;;;3.25;;
51266;SDS011;37338;47.426;19.204;2023-04-03T00:58:48;5.37;;;3.23;;
51266;SDS011;37338;47.426;19.204;2023-04-03T01:01:15;4.67;;;3.27;;
51266;SDS011;37338;47.426;19.204;2023-04-03T01:03:45;5.73;;;3.33;;
51266;SDS011;37338;47.426;19.204;2023-04-03T01:06:10;8.97;;;3.67;;
51266;SDS011;37338;47.426;19.204;2023-04-03T01:08:35;4.27;;;3.07;;
51266;SDS011;37338;47.426;19.204;2023-04-03T01:11:01;5.53;;;3.17;;
51266;SDS011;37338;47.426;19.204;2023-04-03T01:13:28;4.33;;;3.13;;
51266;SDS011;37338;47.426;19.204;2023-04-03T01:15:55;5.90;;;3.97;;
51266;SDS011;37338;47.426;19.204;2023-04-03T01:18:21;4.40;;;3.40;;
51266;SDS011;37338;47.426;19.204;2023-04-03T01:23:35;4.67;;;3.23;;
51266;SDS011;37338;47.426;19.204;2023-04-03T01:26:06;4.00;;;3.07;;
51266;SDS011;37338;47.426;19.204;2023-04-03T01:28:34;4.57;;;3.07;;
51266;SDS011;37338;47.426;19.204;2023-04-03T01:33:45;6.07;;;3.40;;
51266;SDS011;37338;47.426;19.204;2023-04-03T01:36:15;5.20;;;3.63;;
51266;SDS011;37338;47.426;19.204;2023-04-03T01:38:42;5.00;;;3.50;;
51266;SDS011;37338;47.426;19.204;2023-04-03T01:41:07;6.60;;;3.83;;
51266;SDS011;37338;47.426;19.204;2023-04-03T01:43:42;4.03;;;2.80;;
51266;SDS011;37338;47.426;19.204;2023-04-03T01:46:11;4.70;;;2.77;;
51266;SDS011;37338;47.426;19.204;2023-04-03T01:48:36;4.47;;;3.00;;
51266;SDS011;37338;47.426;19.204;2023-04-03T01:51:02;4.53;;;2.97;;
51266;SDS011;37338;47.426;19.204;2023-04-03T01:53:27;4.00;;;3.33;;
51266;SDS011;37338;47.426;19.204;2023-04-03T01:55:52;3.67;;;2.53;;
51266;SDS011;37338;47.426;19.204;2023-04-03T01:58:36;4.60;;;2.77;;
51266;SDS011;37338;47.426;19.204;2023-04-03T02:01:02;4.47;;;2.63;;
51266;SDS011;37338;47.426;19.204;2023-04-03T02:03:27;4.00;;;2.57;;
51266;SDS011;37338;47.426;19.204;2023-04-03T02:05:53;4.43;;;2.60;;
51266;SDS011;37338;47.426;19.204;2023-04-03T02:08:18;5.10;;;2.63;;
51266;SDS011;37338;47.426;19.204;2023-04-03T02:10:44;3.20;;;2.20;;
51266;SDS011;37338;47.426;19.204;2023-04-03T02:13:12;4.57;;;2.53;;
51266;SDS011;37338;47.426;19.204;2023-04-03T02:15:38;3.93;;;2.50;;
51266;SDS011;37338;47.426;19.204;2023-04-03T02:18:04;3.37;;;2.63;;
51266;SDS011;37338;47.426;19.204;2023-04-03T02:20:30;2.93;;;2.20;;
51266;SDS011;37338;47.426;19.204;2023-04-03T02:22:55;4.50;;;2.50;;
51266;SDS011;37338;47.426;19.204;2023-04-03T02:25:37;4.73;;;2.37;;
51266;SDS011;37338;47.426;19.204;2023-04-03T02:28:02;3.83;;;2.53;;
51266;SDS011;37338;47.426;19.204;2023-04-03T02:30:28;3.93;;;2.53;;
51266;SDS011;37338;47.426;19.204;2023-04-03T02:32:53;3.60;;;2.43;;
51266;SDS011;37338;47.426;19.204;2023-04-03T02:35:18;3.53;;;2.40;;
51266;SDS011;37338;47.426;19.204;2023-04-03T02:37:44;4.07;;;2.33;;
51266;SDS011;37338;47.426;19.204;2023-04-03T02:40:09;3.23;;;2.27;;
51266;SDS011;37338;47.426;19.204;2023-04-03T02:42:36;2.43;;;1.87;;
51266;SDS011;37338;47.426;19.204;2023-04-03T02:45:01;2.70;;;1.90;;
51266;SDS011;37338;47.426;19.204;2023-04-03T02:47:27;3.80;;;2.00;;
51266;SDS011;37338;47.426;19.204;2023-04-03T02:49:53;4.90;;;2.20;;
51266;SDS011;37338;47.426;19.204;2023-04-03T02:52:18;3.37;;;2.00;;
51266;SDS011;37338;47.426;19.204;2023-04-03T02:54:43;3.53;;;2.30;;
51266;SDS011;37338;47.426;19.204;2023-04-03T02:57:09;2.83;;;1.83;;
51266;SDS011;37338;47.426;19.204;2023-04-03T02:59:35;4.73;;;2.10;;
51266;SDS011;37338;47.426;19.204;2023-04-03T03:02:01;4.90;;;2.50;;
51266;SDS011;37338;47.426;19.204;2023-04-03T03:04:27;3.03;;;1.97;;
51266;SDS011;37338;47.426;19.204;2023-04-03T03:06:52;2.23;;;1.63;;
51266;SDS011;37338;47.426;19.204;2023-04-03T03:09:18;3.93;;;2.30;;
51266;SDS011;37338;47.426;19.204;2023-04-03T03:11:43;3.37;;;2.10;;
51266;SDS011;37338;47.426;19.204;2023-04-03T03:14:09;2.27;;;1.67;;
51266;SDS011;37338;47.426;19.204;2023-04-03T03:16:34;2.47;;;1.60;;
51266;SDS011;37338;47.426;19.204;2023-04-03T03:19:00;2.60;;;2.10;;
51266;SDS011;37338;47.426;19.204;2023-04-03T03:21:25;3.00;;;1.73;;
51266;SDS011;37338;47.426;19.204;2023-04-03T03:23:51;2.53;;;1.77;;
51266;SDS011;37338;47.426;19.204;2023-04-03T03:26:16;3.63;;;1.93;;
51266;SDS011;37338;47.426;19.204;2023-04-03T03:28:41;2.63;;;1.77;;
51266;SDS011;37338;47.426;19.204;2023-04-03T03:31:08;2.43;;;1.80;;
51266;SDS011;37338;47.426;19.204;2023-04-03T03:33:33;2.37;;;1.70;;
51266;SDS011;37338;47.426;19.204;2023-04-03T03:35:59;2.73;;;1.57;;
51266;SDS011;37338;47.426;19.204;2023-04-03T03:38:25;3.93;;;2.23;;
51266;SDS011;37338;47.426;19.204;2023-04-03T03:40:51;3.00;;;1.50;;
51266;SDS011;37338;47.426;19.204;2023-04-03T03:43:17;2.10;;;1.57;;
51266;SDS011;37338;47.426;19.204;2023-04-03T03:45:43;2.10;;;1.63;;
51266;SDS011;37338;47.426;19.204;2023-04-03T03:48:08;2.90;;;1.80;;
51266;SDS011;37338;47.426;19.204;2023-04-03T03:50:34;2.37;;;1.47;;
51266;SDS011;37338;47.426;19.204;2023-04-03T03:53:00;3.50;;;1.97;;
51266;SDS011;37338;47.426;19.204;2023-04-03T03:55:25;3.90;;;2.37;;
51266;SDS011;37338;47.426;19.204;2023-04-03T03:57:51;2.17;;;1.50;;
51266;SDS011;37338;47.426;19.204;2023-04-03T04:00:16;3.50;;;2.00;;
51266;SDS011;37338;47.426;19.204;2023-04-03T04:02:42;2.03;;;1.73;;
51266;SDS011;37338;47.426;19.204;2023-04-03T04:05:08;2.63;;;1.93;;
51266;SDS011;37338;47.426;19.204;2023-04-03T04:07:33;2.83;;;1.70;;
51266;SDS011;37338;47.426;19.204;2023-04-03T04:09:59;3.47;;;1.90;;
51266;SDS011;37338;47.426;19.204;2023-04-03T04:12:24;2.33;;;1.60;;
51266;SDS011;37338;47.426;19.204;2023-04-03T04:14:50;2.83;;;1.87;;
51266;SDS011;37338;47.426;19.204;2023-04-03T04:17:15;3.30;;;1.43;;
51266;SDS011;37338;47.426;19.204;2023-04-03T04:19:40;3.50;;;2.23;;
51266;SDS011;37338;47.426;19.204;2023-04-03T04:22:06;2.43;;;1.80;;
51266;SDS011;37338;47.426;19.204;2023-04-03T04:24:31;2.67;;;1.73;;
51266;SDS011;37338;47.426;19.204;2023-04-03T04:26:57;3.07;;;1.83;;
51266;SDS011;37338;47.426;19.204;2023-04-03T04:29:22;2.17;;;1.57;;
51266;SDS011;37338;47.426;19.204;2023-04-03T04:31:48;3.47;;;2.13;;
51266;SDS011;37338;47.426;19.204;2023-04-03T04:34:13;3.30;;;2.07;;
51266;SDS011;37338;47.426;19.204;2023-04-03T04:36:39;3.00;;;2.07;;
51266;SDS011;37338;47.426;19.204;2023-04-03T04:39:05;2.50;;;1.67;;
51266;SDS011;37338;47.426;19.204;2023-04-03T04:41:30;3.20;;;1.97;;
51266;SDS011;37338;47.426;19.204;2023-04-03T04:43:56;3.17;;;2.00;;
51266;SDS011;37338;47.426;19.204;2023-04-03T04:46:22;3.60;;;2.10;;
51266;SDS011;37338;47.426;19.204;2023-04-03T04:48:47;3.47;;;2.27;;
51266;SDS011;37338;47.426;19.204;2023-04-03T04:51:13;2.57;;;2.10;;
51266;SDS011;37338;47.426;19.204;2023-04-03T04:53:39;3.53;;;2.40;;
51266;SDS011;37338;47.426;19.204;2023-04-03T04:56:04;4.63;;;2.33;;
51266;SDS011;37338;47.426;19.204;2023-04-03T04:58:30;3.10;;;2.07;;
51266;SDS011;37338;47.426;19.204;2023-04-03T05:00:59;2.93;;;1.97;;
51266;SDS011;37338;47.426;19.204;2023-04-03T05:03:29;2.40;;;1.95;;
51266;SDS011;37338;47.426;19.204;2023-04-03T05:05:54;4.03;;;1.97;;
51266;SDS011;37338;47.426;19.204;2023-04-03T05:08:20;2.87;;;2.20;;
51266;SDS011;37338;47.426;19.204;2023-04-03T05:10:46;5.63;;;2.13;;
51266;SDS011;37338;47.426;19.204;2023-04-03T05:13:11;4.63;;;2.60;;
51266;SDS011;37338;47.426;19.204;2023-04-03T05:15:37;4.40;;;3.23;;
51266;SDS011;37338;47.426;19.204;2023-04-03T05:18:02;3.40;;;2.40;;
51266;SDS011;37338;47.426;19.204;2023-04-03T05:20:28;4.40;;;2.53;;
51266;SDS011;37338;47.426;19.204;2023-04-03T05:22:53;5.73;;;3.10;;
51266;SDS011;37338;47.426;19.204;2023-04-03T05:25:19;3.77;;;2.50;;
51266;SDS011;37338;47.426;19.204;2023-04-03T05:27:44;3.07;;;2.47;;
51266;SDS011;37338;47.426;19.204;2023-04-03T05:30:10;3.10;;;2.17;;
51266;SDS011;37338;47.426;19.204;2023-04-03T05:32:35;4.63;;;2.27;;
51266;SDS011;37338;47.426;19.204;2023-04-03T05:35:01;2.90;;;1.97;;
51266;SDS011;37338;47.426;19.204;2023-04-03T05:37:26;4.57;;;2.63;;
51266;SDS011;37338;47.426;19.204;2023-04-03T05:40:10;4.57;;;2.60;;
51266;SDS011;37338;47.426;19.204;2023-04-03T05:42:36;5.07;;;2.30;;
51266;SDS011;37338;47.426;19.204;2023-04-03T05:51:51;3.20;;;2.27;;
51266;SDS011;37338;47.426;19.204;2023-04-03T05:54:23;3.13;;;2.13;;
51266;SDS011;37338;47.426;19.204;2023-04-03T05:56:53;8.13;;;2.23;;
51266;SDS011;37338;47.426;19.204;2023-04-03T05:59:18;5.03;;;2.37;;
51266;SDS011;37338;47.426;19.204;2023-04-03T06:01:45;3.17;;;2.40;;
51266;SDS011;37338;47.426;19.204;2023-04-03T06:04:10;3.30;;;2.30;;
51266;SDS011;37338;47.426;19.204;2023-04-03T06:06:47;3.93;;;2.93;;
51266;SDS011;37338;47.426;19.204;2023-04-03T06:09:24;3.87;;;2.23;;
51266;SDS011;37338;47.426;19.204;2023-04-03T06:11:51;5.27;;;2.37;;
51266;SDS011;37338;47.426;19.204;2023-04-03T06:14:17;2.57;;;2.03;;
51266;SDS011;37338;47.426;19.204;2023-04-03T06:16:42;2.60;;;1.77;;
51266;SDS011;37338;47.426;19.204;2023-04-03T06:19:08;4.97;;;3.00;;
51266;SDS011;37338;47.426;19.204;2023-04-03T06:21:43;3.93;;;2.80;;
51266;SDS011;37338;47.426;19.204;2023-04-03T06:24:09;6.33;;;2.70;;
51266;SDS011;37338;47.426;19.204;2023-04-03T06:26:37;3.67;;;3.03;;
51266;SDS011;37338;47.426;19.204;2023-04-03T06:29:03;3.83;;;2.37;;
51266;SDS011;37338;47.426;19.204;2023-04-03T06:31:28;5.67;;;1.97;;
51266;SDS011;37338;47.426;19.204;2023-04-03T06:33:53;3.40;;;2.40;;
51266;SDS011;37338;47.426;19.204;2023-04-03T06:36:31;4.97;;;2.90;;
51266;SDS011;37338;47.426;19.204;2023-04-03T06:38:56;3.90;;;2.50;;
51266;SDS011;37338;47.426;19.204;2023-04-03T06:41:22;3.90;;;2.77;;
51266;SDS011;37338;47.426;19.204;2023-04-03T06:43:47;4.03;;;2.57;;
51266;SDS011;37338;47.426;19.204;2023-04-03T06:46:16;7.13;;;2.07;;
51266;SDS011;37338;47.426;19.204;2023-04-03T06:48:43;7.73;;;2.10;;
51266;SDS011;37338;47.426;19.204;2023-04-03T06:51:20;3.13;;;1.90;;
51266;SDS011;37338;47.426;19.204;2023-04-03T06:53:56;1.83;;;1.40;;
51266;SDS011;37338;47.426;19.204;2023-04-03T06:56:23;2.03;;;1.30;;
51266;SDS011;37338;47.426;19.204;2023-04-03T06:58:50;2.17;;;1.60;;
51266;SDS011;37338;47.426;19.204;2023-04-03T07:01:17;4.43;;;1.67;;
51266;SDS011;37338;47.426;19.204;2023-04-03T07:03:46;1.60;;;1.20;;
51266;SDS011;37338;47.426;19.204;2023-04-03T07:06:13;2.30;;;1.40;;
51266;SDS011;37338;47.426;19.204;2023-04-03T07:08:39;2.20;;;1.57;;
51266;SDS011;37338;47.426;19.204;2023-04-03T07:11:05;3.87;;;2.20;;
51266;SDS011;37338;47.426;19.204;2023-04-03T07:13:31;1.57;;;1.13;;
51266;SDS011;37338;47.426;19.204;2023-04-03T07:15:57;2.03;;;1.40;;
51266;SDS011;37338;47.426;19.204;2023-04-03T07:18:23;1.80;;;1.37;;
51266;SDS011;37338;47.426;19.204;2023-04-03T07:20:48;2.90;;;1.27;;
51266;SDS011;37338;47.426;19.204;2023-04-03T07:23:14;1.57;;;1.23;;
51266;SDS011;37338;47.426;19.204;2023-04-03T07:25:43;1.83;;;0.90;;
51266;SDS011;37338;47.426;19.204;2023-04-03T07:28:09;2.70;;;1.50;;
51266;SDS011;37338;47.426;19.204;2023-04-03T07:30:34;1.73;;;1.33;;
51266;SDS011;37338;47.426;19.204;2023-04-03T07:33:00;2.07;;;1.07;;
51266;SDS011;37338;47.426;19.204;2023-04-03T07:35:26;1.60;;;0.97;;
51266;SDS011;37338;47.426;19.204;2023-04-03T07:37:52;2.93;;;1.47;;
51266;SDS011;37338;47.426;19.204;2023-04-03T07:40:18;1.80;;;1.20;;
51266;SDS011;37338;47.426;19.204;2023-04-03T07:42:43;2.10;;;1.10;;
51266;SDS011;37338;47.426;19.204;2023-04-03T07:45:09;1.47;;;0.90;;
51266;SDS011;37338;47.426;19.204;2023-04-03T07:47:35;1.50;;;1.13;;
51266;SDS011;37338;47.426;19.204;2023-04-03T07:50:01;2.40;;;1.37;;
51266;SDS011;37338;47.426;19.204;2023-04-03T07:52:26;1.37;;;0.90;;
51266;SDS011;37338;47.426;19.204;2023-04-03T07:54:52;1.27;;;1.13;;
51266;SDS011;37338;47.426;19.204;2023-04-03T07:57:17;3.50;;;2.17;;
51266;SDS011;37338;47.426;19.204;2023-04-03T07:59:42;1.67;;;1.30;;
51266;SDS011;37338;47.426;19.204;2023-04-03T08:02:09;2.60;;;1.37;;
51266;SDS011;37338;47.426;19.204;2023-04-03T08:04:35;1.10;;;1.00;;
51266;SDS011;37338;47.426;19.204;2023-04-03T08:07:01;1.33;;;1.03;;
51266;SDS011;37338;47.426;19.204;2023-04-03T08:09:26;2.07;;;1.13;;
51266;SDS011;37338;47.426;19.204;2023-04-03T08:11:52;1.17;;;0.93;;
51266;SDS011;37338;47.426;19.204;2023-04-03T08:14:18;1.73;;;0.77;;
51266;SDS011;37338;47.426;19.204;2023-04-03T08:16:44;2.30;;;1.53;;
51266;SDS011;37338;47.426;19.204;2023-04-03T08:19:11;2.03;;;1.00;;
51266;SDS011;37338;47.426;19.204;2023-04-03T08:21:39;1.63;;;0.80;;
51266;SDS011;37338;47.426;19.204;2023-04-03T08:24:06;3.77;;;1.27;;
51266;SDS011;37338;47.426;19.204;2023-04-03T08:26:32;2.93;;;1.10;;
51266;SDS011;37338;47.426;19.204;2023-04-03T08:28:57;1.13;;;1.03;;
51266;SDS011;37338;47.426;19.204;2023-04-03T08:31:23;1.50;;;0.77;;
51266;SDS011;37338;47.426;19.204;2023-04-03T08:33:48;3.03;;;1.00;;
51266;SDS011;37338;47.426;19.204;2023-04-03T08:36:18;3.03;;;1.43;;
51266;SDS011;37338;47.426;19.204;2023-04-03T08:38:44;2.10;;;1.57;;
51266;SDS011;37338;47.426;19.204;2023-04-03T08:49:21;2.90;;;1.27;;
51266;SDS011;37338;47.426;19.204;2023-04-03T08:51:50;3.60;;;1.30;;
51266;SDS011;37338;47.426;19.204;2023-04-03T08:54:21;1.83;;;0.97;;
51266;SDS011;37338;47.426;19.204;2023-04-03T08:57:02;2.08;;;1.00;;
51266;SDS011;37338;47.426;19.204;2023-04-03T08:59:30;2.23;;;1.30;;
51266;SDS011;37338;47.426;19.204;2023-04-03T09:02:00;1.60;;;1.20;;
51266;SDS011;37338;47.426;19.204;2023-04-03T09:04:32;2.17;;;1.40;;
51266;SDS011;37338;47.426;19.204;2023-04-03T09:07:02;2.77;;;1.53;;
51266;SDS011;37338;47.426;19.204;2023-04-03T09:09:35;2.50;;;1.53;;
51266;SDS011;37338;47.426;19.204;2023-04-03T09:17:07;2.10;;;1.13;;
51266;SDS011;37338;47.426;19.204;2023-04-03T09:20:01;1.77;;;1.60;;
51266;SDS011;37338;47.426;19.204;2023-04-03T09:22:45;1.20;;;1.00;;
51266;SDS011;37338;47.426;19.204;2023-04-03T09:25:13;2.17;;;1.40;;
51266;SDS011;37338;47.426;19.204;2023-04-03T09:27:41;1.80;;;1.33;;
51266;SDS011;37338;47.426;19.204;2023-04-03T09:30:16;1.60;;;1.10;;
51266;SDS011;37338;47.426;19.204;2023-04-03T09:32:55;2.03;;;1.30;;
51266;SDS011;37338;47.426;19.204;2023-04-03T09:35:25;1.57;;;1.23;;
51266;SDS011;37338;47.426;19.204;2023-04-03T09:37:53;2.17;;;1.33;;
51266;SDS011;37338;47.426;19.204;2023-04-03T09:40:34;1.97;;;1.33;;
51266;SDS011;37338;47.426;19.204;2023-04-03T09:45:56;1.40;;;1.13;;
51266;SDS011;37338;47.426;19.204;2023-04-03T09:48:47;4.47;;;1.53;;
51266;SDS011;37338;47.426;19.204;2023-04-03T09:51:16;1.73;;;1.40;;
51266;SDS011;37338;47.426;19.204;2023-04-03T09:53:42;2.40;;;1.43;;
51266;SDS011;37338;47.426;19.204;2023-04-03T09:58:44;1.10;;;1.00;;
51266;SDS011;37338;47.426;19.204;2023-04-03T10:06:29;1.53;;;0.97;;
51266;SDS011;37338;47.426;19.204;2023-04-03T10:09:01;1.63;;;1.20;;
51266;SDS011;37338;47.426;19.204;2023-04-03T10:11:32;4.83;;;1.00;;
51266;SDS011;37338;47.426;19.204;2023-04-03T10:14:02;1.50;;;1.30;;
51266;SDS011;37338;47.426;19.204;2023-04-03T10:16:34;1.20;;;1.00;;
51266;SDS011;37338;47.426;19.204;2023-04-03T10:21:59;1.15;;;1.08;;
51266;SDS011;37338;47.426;19.204;2023-04-03T10:24:52;1.50;;;1.10;;
51266;SDS011;37338;47.426;19.204;2023-04-03T10:27:30;3.43;;;1.20;;
51266;SDS011;37338;47.426;19.204;2023-04-03T10:30:20;1.40;;;1.30;;
51266;SDS011;37338;47.426;19.204;2023-04-03T10:38:42;1.27;;;0.87;;
51266;SDS011;37338;47.426;19.204;2023-04-03T10:41:13;2.97;;;1.27;;
51266;SDS011;37338;47.426;19.204;2023-04-03T10:46:49;2.60;;;1.30;;
51266;SDS011;37338;47.426;19.204;2023-04-03T10:49:37;1.57;;;1.10;;
51266;SDS011;37338;47.426;19.204;2023-04-03T10:52:22;1.37;;;0.80;;
51266;SDS011;37338;47.426;19.204;2023-04-03T10:57:55;1.42;;;1.10;;
51266;SDS011;37338;47.426;19.204;2023-04-03T11:00:30;1.33;;;0.70;;
51266;SDS011;37338;47.426;19.204;2023-04-03T11:03:06;2.00;;;1.10;;
51266;SDS011;37338;47.426;19.204;2023-04-03T11:05:42;1.33;;;0.70;;
51266;SDS011;37338;47.426;19.204;2023-04-03T11:08:19;1.83;;;1.07;;
51266;SDS011;37338;47.426;19.204;2023-04-03T11:10:49;1.37;;;1.00;;
51266;SDS011;37338;47.426;19.204;2023-04-03T11:16:05;1.27;;;1.00;;
51266;SDS011;37338;47.426;19.204;2023-04-03T11:18:52;1.67;;;0.80;;
51266;SDS011;37338;47.426;19.204;2023-04-03T11:21:26;4.80;;;3.70;;
51266;SDS011;37338;47.426;19.204;2023-04-03T11:23:56;1.80;;;1.40;;
51266;SDS011;37338;47.426;19.204;2023-04-03T11:26:24;0.90;;;0.90;;
51266;SDS011;37338;47.426;19.204;2023-04-03T11:29:05;0.77;;;0.70;;
51266;SDS011;37338;47.426;19.204;2023-04-03T11:34:17;1.83;;;1.50;;
51266;SDS011;37338;47.426;19.204;2023-04-03T11:39:59;2.13;;;0.80;;
51266;SDS011;37338;47.426;19.204;2023-04-03T11:42:32;1.40;;;0.80;;
51266;SDS011;37338;47.426;19.204;2023-04-03T11:50:46;0.97;;;0.77;;
51266;SDS011;37338;47.426;19.204;2023-04-03T12:05:48;0.80;;;0.80;;
51266;SDS011;37338;47.426;19.204;2023-04-03T12:08:16;3.50;;;0.83;;
51266;SDS011;37338;47.426;19.204;2023-04-03T12:13:38;1.20;;;1.10;;
51266;SDS011;37338;47.426;19.204;2023-04-03T12:16:23;2.23;;;1.53;;
51266;SDS011;37338;47.426;19.204;2023-04-03T12:21:20;0.60;;;0.60;;
51266;SDS011;37338;47.426;19.204;2023-04-03T12:26:32;1.83;;;1.13;;
51266;SDS011;37338;47.426;19.204;2023-04-03T12:29:02;1.23;;;0.87;;
51266;SDS011;37338;47.426;19.204;2023-04-03T12:31:54;2.60;;;1.07;;
51266;SDS011;37338;47.426;19.204;2023-04-03T12:37:42;1.20;;;0.90;;
51266;SDS011;37338;47.426;19.204;2023-04-03T12:46:17;1.77;;;1.17;;
51266;SDS011;37338;47.426;19.204;2023-04-03T12:51:09;1.80;;;1.17;;
51266;SDS011;37338;47.426;19.204;2023-04-03T12:53:38;1.40;;;0.73;;
51266;SDS011;37338;47.426;19.204;2023-04-03T12:59:13;1.80;;;0.80;;
51266;SDS011;37338;47.426;19.204;2023-04-03T13:04:23;1.60;;;0.60;;
51266;SDS011;37338;47.426;19.204;2023-04-03T13:06:49;1.17;;;0.93;;
51266;SDS011;37338;47.426;19.204;2023-04-03T13:09:22;3.53;;;0.63;;
51266;SDS011;37338;47.426;19.204;2023-04-03T13:12:01;0.83;;;0.60;;
51266;SDS011;37338;47.426;19.204;2023-04-03T13:14:28;1.53;;;0.70;;
51266;SDS011;37338;47.426;19.204;2023-04-03T13:16:54;1.13;;;1.03;;
51266;SDS011;37338;47.426;19.204;2023-04-03T13:19:30;1.07;;;0.60;;
51266;SDS011;37338;47.426;19.204;2023-04-03T13:21:59;1.77;;;0.70;;
51266;SDS011;37338;47.426;19.204;2023-04-03T13:24:28;1.40;;;0.93;;
51266;SDS011;37338;47.426;19.204;2023-04-03T13:26:54;1.33;;;0.60;;
51266;SDS011;37338;47.426;19.204;2023-04-03T13:29:22;0.47;;;0.40;;
51266;SDS011;37338;47.426;19.204;2023-04-03T13:31:52;1.20;;;0.87;;
51266;SDS011;37338;47.426;19.204;2023-04-03T13:34:19;1.43;;;0.60;;
51266;SDS011;37338;47.426;19.204;2023-04-03T13:41:42;1.40;;;0.50;;
51266;SDS011;37338;47.426;19.204;2023-04-03T13:46:47;0.50;;;0.50;;
51266;SDS011;37338;47.426;19.204;2023-04-03T13:51:48;1.33;;;0.60;;
51266;SDS011;37338;47.426;19.204;2023-04-03T13:57:03;0.97;;;0.97;;
51266;SDS011;37338;47.426;19.204;2023-04-03T13:59:35;0.73;;;0.43;;
51266;SDS011;37338;47.426;19.204;2023-04-03T14:04:28;2.47;;;0.70;;
51266;SDS011;37338;47.426;19.204;2023-04-03T14:06:58;0.87;;;0.60;;
51266;SDS011;37338;47.426;19.204;2023-04-03T14:09:25;1.00;;;0.60;;
51266;SDS011;37338;47.426;19.204;2023-04-03T14:11:54;2.67;;;0.63;;
51266;SDS011;37338;47.426;19.204;2023-04-03T14:14:22;0.67;;;0.50;;
51266;SDS011;37338;47.426;19.204;2023-04-03T14:16:51;1.37;;;0.90;;
51266;SDS011;37338;47.426;19.204;2023-04-03T14:19:28;0.83;;;0.73;;
51266;SDS011;37338;47.426;19.204;2023-04-03T14:21:55;0.97;;;0.67;;
51266;SDS011;37338;47.426;19.204;2023-04-03T14:24:21;1.80;;;0.50;;
51266;SDS011;37338;47.426;19.204;2023-04-03T14:26:48;0.60;;;0.50;;
51266;SDS011;37338;47.426;19.204;2023-04-03T14:29:15;1.10;;;0.70;;
51266;SDS011;37338;47.426;19.204;2023-04-03T14:31:41;1.27;;;0.60;;
51266;SDS011;37338;47.426;19.204;2023-04-03T14:34:09;4.07;;;0.70;;
51266;SDS011;37338;47.426;19.204;2023-04-03T14:36:36;1.40;;;0.80;;
51266;SDS011;37338;47.426;19.204;2023-04-03T14:39:03;1.00;;;0.87;;
51266;SDS011;37338;47.426;19.204;2023-04-03T14:41:29;0.87;;;0.73;;
51266;SDS011;37338;47.426;19.204;2023-04-03T14:43:54;0.90;;;0.57;;
51266;SDS011;37338;47.426;19.204;2023-04-03T14:46:30;1.10;;;0.70;;
51266;SDS011;37338;47.426;19.204;2023-04-03T14:48:58;1.33;;;0.63;;
51266;SDS011;37338;47.426;19.204;2023-04-03T14:51:24;3.30;;;0.70;;
51266;SDS011;37338;47.426;19.204;2023-04-03T14:53:50;2.20;;;0.77;;
51266;SDS011;37338;47.426;19.204;2023-04-03T14:56:21;1.67;;;0.90;;
51266;SDS011;37338;47.426;19.204;2023-04-03T14:58:49;6.95;;;0.85;;
51266;SDS011;37338;47.426;19.204;2023-04-03T15:01:18;0.87;;;0.77;;
51266;SDS011;37338;47.426;19.204;2023-04-03T15:03:44;1.20;;;0.50;;
51266;SDS011;37338;47.426;19.204;2023-04-03T15:06:12;0.47;;;0.40;;
51266;SDS011;37338;47.426;19.204;2023-04-03T15:08:38;0.30;;;0.30;;
51266;SDS011;37338;47.426;19.204;2023-04-03T15:11:06;0.40;;;0.30;;
51266;SDS011;37338;47.426;19.204;2023-04-03T15:13:32;4.20;;;0.60;;
51266;SDS011;37338;47.426;19.204;2023-04-03T15:15:57;1.37;;;0.70;;
51266;SDS011;37338;47.426;19.204;2023-04-03T15:18:24;0.73;;;0.40;;
51266;SDS011;37338;47.426;19.204;2023-04-03T15:20:53;0.40;;;0.30;;
51266;SDS011;37338;47.426;19.204;2023-04-03T15:23:20;0.60;;;0.60;;
51266;SDS011;37338;47.426;19.204;2023-04-03T15:25:50;0.57;;;0.20;;
51266;SDS011;37338;47.426;19.204;2023-04-03T15:28:38;0.70;;;0.43;;
51266;SDS011;37338;47.426;19.204;2023-04-03T15:31:03;0.47;;;0.37;;
51266;SDS011;37338;47.426;19.204;2023-04-03T15:33:29;0.73;;;0.50;;
51266;SDS011;37338;47.426;19.204;2023-04-03T15:35:55;0.63;;;0.40;;
51266;SDS011;37338;47.426;19.204;2023-04-03T15:38:20;0.60;;;0.43;;
51266;SDS011;37338;47.426;19.204;2023-04-03T15:40:46;4.10;;;1.53;;
51266;SDS011;37338;47.426;19.204;2023-04-03T15:43:12;3.70;;;0.40;;
51266;SDS011;37338;47.426;19.204;2023-04-03T15:45:37;1.73;;;0.60;;
51266;SDS011;37338;47.426;19.204;2023-04-03T15:48:03;0.57;;;0.37;;
51266;SDS011;37338;47.426;19.204;2023-04-03T15:50:30;0.90;;;0.77;;
51266;SDS011;37338;47.426;19.204;2023-04-03T15:52:56;1.90;;;0.60;;
51266;SDS011;37338;47.426;19.204;2023-04-03T15:55:26;2.53;;;1.00;;
51266;SDS011;37338;47.426;19.204;2023-04-03T15:57:53;2.03;;;0.60;;
51266;SDS011;37338;47.426;19.204;2023-04-03T16:00:18;1.37;;;0.40;;
51266;SDS011;37338;47.426;19.204;2023-04-03T16:02:45;1.47;;;0.97;;
51266;SDS011;37338;47.426;19.204;2023-04-03T16:05:11;1.93;;;0.90;;
51266;SDS011;37338;47.426;19.204;2023-04-03T16:07:37;2.70;;;1.27;;
51266;SDS011;37338;47.426;19.204;2023-04-03T16:10:04;4.50;;;1.10;;
51266;SDS011;37338;47.426;19.204;2023-04-03T16:12:30;1.50;;;1.13;;
51266;SDS011;37338;47.426;19.204;2023-04-03T16:14:55;1.60;;;0.73;;
51266;SDS011;37338;47.426;19.204;2023-04-03T16:17:20;0.80;;;0.40;;
51266;SDS011;37338;47.426;19.204;2023-04-03T16:19:46;0.60;;;0.37;;
51266;SDS011;37338;47.426;19.204;2023-04-03T16:22:11;1.20;;;0.50;;
51266;SDS011;37338;47.426;19.204;2023-04-03T16:24:37;1.97;;;1.07;;
51266;SDS011;37338;47.426;19.204;2023-04-03T16:27:03;1.60;;;0.60;;
51266;SDS011;37338;47.426;19.204;2023-04-03T16:29:28;1.30;;;0.73;;
51266;SDS011;37338;47.426;19.204;2023-04-03T16:31:54;2.10;;;0.50;;
51266;SDS011;37338;47.426;19.204;2023-04-03T16:34:19;2.20;;;0.73;;
51266;SDS011;37338;47.426;19.204;2023-04-03T16:36:45;1.23;;;0.60;;